Armona, California
Current Conditions -  °F | °C
As of 7:02 AM on Wednesday 26 Nov 2014 (Local Time) from KHJO Reporting Station
Moderate Fog Moderate Fog  
Wind Chill: 37°   Ceiling: 100
Heat Index: 37°   Visibility: 0mi
Dew Point: 37°   Wind: 0mph
Humidity: 100%   Direction: NA
Pressure: 30.35"   Gusts: NA
Location:  36.32°N, 119.71°W
Report Text: KHJO 261502Z AUTO 00000KT M1/4SM FG VV001 03/03 A3035 RMK AO2 T00280028
Loading
Personal Weather Stations






























Interactive Weather Map New forecast layout! Learn more

10-Day Weather Forecast

Advertisements
Track Severe Weather on mobile